createdAt,value
2017-11-18T00:02:16.421Z,5.43
2017-11-18T00:04:44.640Z,5.80
2017-11-18T00:07:12.087Z,5.63
2017-11-18T00:09:39.546Z,5.53
2017-11-18T00:12:06.994Z,5.73
2017-11-18T00:14:35.226Z,4.87
2017-11-18T00:17:02.681Z,6.70
2017-11-18T00:19:30.123Z,6.20
2017-11-18T00:21:57.577Z,5.47
2017-11-18T00:24:25.036Z,4.70
2017-11-18T00:26:52.480Z,5.37
2017-11-18T00:29:20.683Z,5.50
2017-11-18T00:31:48.146Z,4.90
2017-11-18T00:34:15.581Z,4.97
2017-11-18T00:36:43.808Z,4.80
2017-11-18T00:39:11.247Z,5.67
2017-11-18T00:41:38.685Z,5.50
2017-11-18T00:44:06.890Z,4.33
2017-11-18T00:46:34.346Z,4.43
2017-11-18T00:49:01.796Z,5.27
2017-11-18T00:51:29.253Z,4.75
2017-11-18T00:53:57.468Z,5.90
2017-11-18T00:56:24.916Z,4.33
2017-11-18T00:58:52.367Z,4.75
2017-11-18T01:01:19.803Z,4.78
2017-11-18T01:03:48.020Z,5.33
2017-11-18T01:06:15.479Z,5.07
2017-11-18T01:08:42.958Z,3.77
2017-11-18T01:11:10.395Z,4.30
2017-11-18T01:13:37.836Z,5.03
2017-11-18T01:16:06.056Z,3.70
2017-11-18T01:18:33.508Z,4.30
2017-11-18T01:21:00.969Z,5.35
2017-11-18T01:23:28.412Z,4.73
2017-11-18T01:25:56.642Z,4.25
2017-11-18T01:28:24.082Z,4.20
2017-11-18T01:30:51.527Z,4.00
2017-11-18T01:33:18.956Z,4.40
2017-11-18T01:35:46.413Z,5.03
2017-11-18T01:38:13.878Z,5.10
2017-11-18T01:40:41.316Z,5.40
2017-11-18T01:43:08.769Z,5.40
2017-11-18T01:45:36.217Z,4.90
2017-11-18T01:48:03.685Z,5.25
2017-11-18T01:50:31.141Z,5.00
2017-11-18T01:52:58.605Z,3.80
2017-11-18T01:55:26.045Z,4.17
2017-11-18T01:57:53.512Z,5.15
2017-11-18T02:00:20.962Z,4.93
2017-11-18T02:02:49.181Z,4.50
2017-11-18T02:05:16.636Z,4.00
2017-11-18T02:07:44.112Z,4.17
2017-11-18T02:10:11.565Z,3.77
2017-11-18T02:12:39.022Z,3.97
2017-11-18T02:15:06.483Z,4.55
2017-11-18T02:17:33.920Z,3.80
2017-11-18T02:20:01.377Z,4.47
2017-11-18T02:22:29.583Z,3.20
2017-11-18T02:24:57.030Z,3.40
2017-11-18T02:27:24.482Z,4.80
2017-11-18T02:29:52.717Z,4.55
2017-11-18T02:32:20.173Z,4.47
2017-11-18T02:34:47.638Z,3.37
2017-11-18T02:37:15.100Z,4.50
2017-11-18T02:39:42.551Z,4.10
2017-11-18T02:42:10.006Z,5.27
2017-11-18T02:44:37.461Z,4.43
2017-11-18T02:47:04.927Z,4.53
2017-11-18T02:49:32.373Z,4.53
2017-11-18T02:51:59.837Z,4.32
2017-11-18T02:54:27.284Z,3.80
2017-11-18T02:56:54.741Z,4.00
2017-11-18T02:59:22.964Z,4.85
2017-11-18T03:01:50.424Z,4.03
2017-11-18T03:04:17.877Z,3.30
2017-11-18T03:06:45.341Z,4.53
2017-11-18T03:09:12.809Z,3.77
2017-11-18T03:11:40.265Z,3.85
2017-11-18T03:14:07.721Z,4.70
2017-11-18T03:16:35.188Z,4.10
2017-11-18T03:19:02.649Z,3.37
2017-11-18T03:21:30.113Z,4.13
2017-11-18T03:23:57.547Z,4.43
2017-11-18T03:26:25.755Z,4.30
2017-11-18T03:28:53.218Z,4.05
2017-11-18T03:31:20.695Z,4.75
2017-11-18T03:33:48.145Z,3.97
2017-11-18T03:36:15.594Z,3.60
2017-11-18T03:38:43.045Z,4.70
2017-11-18T03:41:10.488Z,3.95
2017-11-18T03:43:38.727Z,4.00
2017-11-18T03:46:06.169Z,3.83
2017-11-18T03:48:33.633Z,3.90
2017-11-18T03:51:01.085Z,4.70
2017-11-18T03:53:28.564Z,4.10
2017-11-18T03:55:56.005Z,4.22
2017-11-18T03:58:23.447Z,4.35
2017-11-18T04:00:56.712Z,3.85
2017-11-18T04:03:24.144Z,2.50
2017-11-18T04:05:51.599Z,4.00
2017-11-18T04:08:19.053Z,3.67
2017-11-18T04:10:46.510Z,4.07
2017-11-18T04:13:13.950Z,3.33
2017-11-18T04:15:42.191Z,3.97
2017-11-18T04:18:09.631Z,4.00
2017-11-18T04:20:37.077Z,3.67
2017-11-18T04:23:04.537Z,4.50
2017-11-18T04:25:31.989Z,4.00
2017-11-18T04:27:59.480Z,3.85
2017-11-18T04:30:26.920Z,4.00
2017-11-18T04:32:54.362Z,3.80
2017-11-18T04:35:22.603Z,3.53
2017-11-18T04:37:50.056Z,3.90
2017-11-18T04:40:17.520Z,3.85
2017-11-18T04:42:44.961Z,3.50
2017-11-18T04:45:12.440Z,4.10
2017-11-18T04:47:39.881Z,3.58
2017-11-18T04:50:07.317Z,3.53
2017-11-18T04:52:34.768Z,4.00
2017-11-18T04:55:02.217Z,4.25
2017-11-18T04:57:29.672Z,3.75
2017-11-18T04:59:57.129Z,5.00
2017-11-18T05:02:24.597Z,4.67
2017-11-18T05:04:52.062Z,3.20
2017-11-18T05:07:19.516Z,4.20
2017-11-18T05:09:46.969Z,4.50
2017-11-18T05:12:14.433Z,4.80
2017-11-18T05:14:41.893Z,4.03
2017-11-18T05:17:09.358Z,4.60
2017-11-18T05:19:36.821Z,4.67
2017-11-18T05:22:04.278Z,4.80
2017-11-18T05:24:31.785Z,5.03
2017-11-18T05:27:00.001Z,4.25
2017-11-18T05:29:27.466Z,4.47
2017-11-18T05:31:54.932Z,4.20
2017-11-18T05:34:22.399Z,3.95
2017-11-18T05:36:49.874Z,3.87
2017-11-18T05:39:17.345Z,4.05
2017-11-18T05:41:44.792Z,4.25
2017-11-18T05:44:12.269Z,4.13
2017-11-18T05:46:39.722Z,3.37
2017-11-18T05:49:07.196Z,4.20
2017-11-18T05:51:34.648Z,4.63
2017-11-18T05:54:02.101Z,3.37
2017-11-18T05:56:29.566Z,4.32
2017-11-18T05:58:57.037Z,3.87
2017-11-18T06:01:24.482Z,3.55
2017-11-18T06:03:51.929Z,3.47
2017-11-18T06:06:19.406Z,4.30
2017-11-18T06:08:46.841Z,3.37
2017-11-18T06:11:15.089Z,3.55
2017-11-18T06:13:42.546Z,3.75
2017-11-18T06:16:10.007Z,3.70
2017-11-18T06:18:37.465Z,3.95
2017-11-18T06:21:04.907Z,3.70
2017-11-18T06:23:32.361Z,3.90
2017-11-18T06:25:59.815Z,4.07
2017-11-18T06:28:27.269Z,3.93
2017-11-18T06:30:54.712Z,4.22
2017-11-18T06:33:22.978Z,3.90
2017-11-18T06:35:50.413Z,5.35
2017-11-18T06:38:17.878Z,8.10
2017-11-18T06:40:45.357Z,7.12
2017-11-18T06:43:12.809Z,5.75
2017-11-18T06:45:40.264Z,5.47
2017-11-18T06:48:07.725Z,3.85
2017-11-18T06:50:35.199Z,11.73
2017-11-18T06:53:02.641Z,5.53
2017-11-18T06:55:30.122Z,15.50
2017-11-18T06:57:57.573Z,11.48
2017-11-18T07:00:25.053Z,14.85
2017-11-18T07:02:52.516Z,15.38
2017-11-18T07:05:19.961Z,8.27
2017-11-18T07:07:47.425Z,6.53
2017-11-18T07:10:14.869Z,4.75
2017-11-18T07:30:04.066Z,4.10
2017-11-18T07:32:31.515Z,6.25
2017-11-18T07:34:58.982Z,5.55
2017-11-18T07:37:26.435Z,4.78
2017-11-18T07:39:54.664Z,5.03
2017-11-18T07:42:22.107Z,4.70
2017-11-18T07:44:49.576Z,5.00
2017-11-18T07:47:17.010Z,5.18
2017-11-18T07:49:44.560Z,5.80
2017-11-18T07:52:12.780Z,5.23
2017-11-18T07:54:40.288Z,4.80
2017-11-18T07:57:07.714Z,6.85
2017-11-18T08:16:54.619Z,4.87
2017-11-18T08:19:22.073Z,4.87
2017-11-18T08:21:49.530Z,4.40
2017-11-18T08:41:37.376Z,4.33
2017-11-18T08:44:04.824Z,4.00
2017-11-18T08:46:32.275Z,5.00
2017-11-18T08:49:00.481Z,4.70
2017-11-18T08:51:27.948Z,5.93
2017-11-18T08:53:55.381Z,3.63
2017-11-18T08:56:23.600Z,3.63
2017-11-18T08:58:51.049Z,3.33
2017-11-18T09:01:18.610Z,3.63
2017-11-18T09:03:46.045Z,2.67
2017-11-18T09:06:14.269Z,4.67
2017-11-18T09:08:41.719Z,4.67
2017-11-18T09:11:09.182Z,2.87
2017-11-18T09:13:36.635Z,4.83
2017-11-18T09:16:04.085Z,5.20
2017-11-18T09:18:31.532Z,6.53
2017-11-18T09:20:59.745Z,5.90
2017-11-18T09:23:27.195Z,5.10
2017-11-18T09:25:54.642Z,4.07
2017-11-18T09:28:22.858Z,6.07
2017-11-18T09:30:50.302Z,6.03
2017-11-18T09:33:17.756Z,5.87
2017-11-18T09:35:45.201Z,4.57
2017-11-18T09:38:13.420Z,4.00
2017-11-18T09:40:40.888Z,4.17
2017-11-18T09:43:08.330Z,4.53
2017-11-18T09:45:35.801Z,4.87
2017-11-18T09:48:03.284Z,3.33
2017-11-18T09:50:30.684Z,4.20
2017-11-18T09:52:58.906Z,2.87
2017-11-18T09:55:27.156Z,3.80
2017-11-18T09:57:55.373Z,3.50
2017-11-18T10:00:22.819Z,4.23
2017-11-18T10:02:50.272Z,3.27
2017-11-18T10:05:17.713Z,3.80
2017-11-18T10:07:46.005Z,3.50
2017-11-18T10:10:14.221Z,4.00
2017-11-18T10:12:41.676Z,4.27
2017-11-18T10:15:09.109Z,4.20
2017-11-18T10:17:37.326Z,3.30
2017-11-18T10:20:04.778Z,4.50
2017-11-18T10:22:32.228Z,4.07
2017-11-18T10:24:59.669Z,3.80
2017-11-18T10:27:27.938Z,4.27
2017-11-18T10:29:55.374Z,4.60
2017-11-18T10:32:22.829Z,5.10
2017-11-18T10:34:50.274Z,4.53
2017-11-18T10:37:17.751Z,4.00
2017-11-18T10:39:45.191Z,4.63
2017-11-18T10:42:12.652Z,4.53
2017-11-18T10:44:40.093Z,4.70
2017-11-18T10:47:08.321Z,5.87
2017-11-18T10:49:35.759Z,5.10
2017-11-18T10:52:03.208Z,5.20
2017-11-18T10:54:30.657Z,4.60
2017-11-18T10:56:58.860Z,4.70
2017-11-18T10:59:26.313Z,4.17
2017-11-18T11:01:53.765Z,4.50
2017-11-18T11:04:22.000Z,3.90
2017-11-18T11:24:09.989Z,3.10
2017-11-18T11:26:37.436Z,2.90
2017-11-18T11:29:04.890Z,2.73
2017-11-18T11:31:32.334Z,3.30
2017-11-18T11:33:59.781Z,4.67
2017-11-18T11:36:28.005Z,3.07
2017-11-18T11:38:55.472Z,2.40
2017-11-18T11:41:22.907Z,3.07
2017-11-18T11:43:50.379Z,2.40
2017-11-18T11:46:17.816Z,2.70
2017-11-18T11:48:45.269Z,2.47
2017-11-18T11:51:13.492Z,2.97
2017-11-18T11:53:40.948Z,2.30
2017-11-18T11:56:08.401Z,2.50
2017-11-18T11:58:35.989Z,2.90
2017-11-18T12:01:03.437Z,3.53
2017-11-18T12:03:30.901Z,2.77
2017-11-18T12:05:58.351Z,2.87
2017-11-18T12:08:25.805Z,2.53
2017-11-18T12:10:53.247Z,2.90
2017-11-18T12:13:21.461Z,2.73
2017-11-18T12:15:48.909Z,3.13
2017-11-18T12:18:16.356Z,2.40
2017-11-18T12:20:44.601Z,2.47
2017-11-18T12:23:12.045Z,2.50
2017-11-18T12:25:39.515Z,2.30
2017-11-18T12:28:06.955Z,2.47
2017-11-18T12:30:34.408Z,2.10
2017-11-18T12:33:01.857Z,2.73
2017-11-18T12:35:29.313Z,2.33
2017-11-18T12:37:56.768Z,2.60
2017-11-18T12:40:24.994Z,2.40
2017-11-18T12:42:52.419Z,2.80
2017-11-18T12:45:19.878Z,2.60
2017-11-18T12:47:48.085Z,4.30
2017-11-18T12:50:15.537Z,2.53
2017-11-18T12:52:42.985Z,3.27
2017-11-18T12:55:11.235Z,2.60
2017-11-18T12:57:38.677Z,3.23
2017-11-18T13:00:06.133Z,2.23
2017-11-18T13:02:33.589Z,3.53
2017-11-18T13:05:01.050Z,5.60
2017-11-18T13:07:28.508Z,8.70
2017-11-18T13:09:55.961Z,2.73
2017-11-18T13:12:23.403Z,3.20
2017-11-18T13:14:50.860Z,2.47
2017-11-18T13:17:18.314Z,2.53
2017-11-18T13:19:46.597Z,2.80
2017-11-18T13:22:14.803Z,3.43
2017-11-18T13:24:42.263Z,3.17
2017-11-18T13:27:09.713Z,2.17
2017-11-18T13:29:37.192Z,2.90
2017-11-18T13:32:04.646Z,2.23
2017-11-18T13:34:32.097Z,2.20
2017-11-18T13:36:59.565Z,2.40
2017-11-18T13:39:27.791Z,2.37
2017-11-18T13:41:55.235Z,2.10
2017-11-18T14:01:41.707Z,2.30
2017-11-18T14:04:09.170Z,2.90
2017-11-18T14:06:36.628Z,2.77
2017-11-18T14:09:04.076Z,1.77
2017-11-18T14:11:31.527Z,2.20
2017-11-18T14:13:58.998Z,2.00
2017-11-18T14:16:26.557Z,1.77
2017-11-18T14:18:54.008Z,2.10
2017-11-18T14:21:21.472Z,2.73
2017-11-18T14:23:48.922Z,2.73
2017-11-18T14:26:16.377Z,2.13
2017-11-18T14:28:43.829Z,2.67
2017-11-18T14:31:12.068Z,2.77
2017-11-18T14:33:39.514Z,2.20
2017-11-18T14:36:06.970Z,2.00
2017-11-18T14:38:34.427Z,3.30
2017-11-18T14:41:01.886Z,2.10
2017-11-18T14:43:29.340Z,1.70
2017-11-18T14:45:56.793Z,2.17
2017-11-18T14:48:24.250Z,2.10
2017-11-18T14:50:52.466Z,1.93
2017-11-18T14:53:19.909Z,1.80
2017-11-18T14:55:47.356Z,2.10
2017-11-18T14:58:14.801Z,1.77
2017-11-18T15:00:42.252Z,2.40
2017-11-18T15:03:09.694Z,1.73
2017-11-18T15:05:37.450Z,1.83
2017-11-18T15:08:04.900Z,2.17
2017-11-18T15:10:32.350Z,2.00
2017-11-18T15:12:59.802Z,2.20
2017-11-18T15:18:44.085Z,2.67
2017-11-18T15:21:17.137Z,1.93
2017-11-18T15:24:01.020Z,1.80
2017-11-18T15:26:47.056Z,2.97
2017-11-18T15:29:34.125Z,2.77
2017-11-18T15:32:07.354Z,1.90
2017-11-18T15:34:50.441Z,2.20
2017-11-18T15:37:23.534Z,2.40
2017-11-18T15:39:50.985Z,2.80
2017-11-18T15:42:18.424Z,5.40
2017-11-18T15:44:47.788Z,2.67
2017-11-18T15:47:21.013Z,3.77
2017-11-18T15:49:54.310Z,2.40
2017-11-18T15:52:22.667Z,2.47
2017-11-18T15:54:56.617Z,2.17
2017-11-18T15:57:24.069Z,2.23
2017-11-18T15:59:52.297Z,2.03
2017-11-18T16:02:20.185Z,2.63
2017-11-18T16:04:48.400Z,7.23
2017-11-18T16:07:16.353Z,3.17
2017-11-18T16:09:44.565Z,2.33
2017-11-18T16:12:12.022Z,3.17
2017-11-18T16:14:39.453Z,2.90
2017-11-18T16:17:07.672Z,2.30
2017-11-18T16:19:35.109Z,2.17
2017-11-18T16:22:02.565Z,2.30
2017-11-18T16:24:30.020Z,2.50
2017-11-18T16:26:58.225Z,2.70
2017-11-18T16:29:25.680Z,2.50
2017-11-18T16:31:53.126Z,2.37
2017-11-18T16:34:21.336Z,2.50
2017-11-18T16:36:48.768Z,2.30
2017-11-18T16:39:16.976Z,2.33
2017-11-18T16:41:44.416Z,2.73
2017-11-18T16:44:11.882Z,2.20
2017-11-18T16:46:39.317Z,3.10
2017-11-18T16:49:07.542Z,3.50
2017-11-18T16:51:34.999Z,2.50
2017-11-18T16:54:02.461Z,2.67
2017-11-18T16:56:29.958Z,3.27
2017-11-18T16:58:57.423Z,3.83
2017-11-18T17:01:24.862Z,2.80
2017-11-18T17:03:52.315Z,3.60
2017-11-18T17:06:19.772Z,3.00
2017-11-18T17:08:47.207Z,3.00
2017-11-18T17:11:15.426Z,4.47
2017-11-18T17:13:42.877Z,2.87
2017-11-18T17:16:10.316Z,3.00
2017-11-18T17:18:38.527Z,2.23
2017-11-18T17:21:05.978Z,2.40
2017-11-18T17:23:33.434Z,2.43
2017-11-18T17:26:00.873Z,2.70
2017-11-18T17:28:29.089Z,2.77
2017-11-18T17:30:56.522Z,2.57
2017-11-18T17:33:25.668Z,2.97
2017-11-18T17:35:53.125Z,3.57
2017-11-18T17:38:21.350Z,2.50
2017-11-18T17:40:48.796Z,3.50
2017-11-18T17:43:16.258Z,4.50
2017-11-18T17:45:43.706Z,4.80
2017-11-18T17:48:11.177Z,3.40
2017-11-18T17:50:38.633Z,2.73
2017-11-18T17:53:06.080Z,2.87
2017-11-18T17:55:33.531Z,2.37
2017-11-18T17:58:01.087Z,2.90
2017-11-18T18:00:28.567Z,2.80
2017-11-18T18:02:56.017Z,3.83
2017-11-18T18:05:23.464Z,2.70
2017-11-18T18:07:50.899Z,3.47
2017-11-18T18:10:19.125Z,3.30
2017-11-18T18:12:46.568Z,2.83
2017-11-18T18:15:14.020Z,2.57
2017-11-18T18:17:42.218Z,2.57
2017-11-18T18:20:09.675Z,2.90
2017-11-18T18:22:37.124Z,2.90
2017-11-18T18:25:05.344Z,2.80
2017-11-18T18:27:32.788Z,3.50
2017-11-18T18:30:00.246Z,2.47
2017-11-18T18:32:27.691Z,3.60
2017-11-18T18:34:55.901Z,3.57
2017-11-18T18:37:23.345Z,3.97
2017-11-18T18:39:50.796Z,4.20
2017-11-18T18:42:18.249Z,3.93
2017-11-18T18:44:46.464Z,3.23
2017-11-18T18:47:13.905Z,2.87
2017-11-18T18:49:41.348Z,3.53
2017-11-18T18:52:09.556Z,4.33
2017-11-18T19:11:57.353Z,3.60
2017-11-18T19:14:24.799Z,3.73
2017-11-18T19:16:52.256Z,4.10
2017-11-18T19:19:19.717Z,3.70
2017-11-18T19:21:47.157Z,4.53
2017-11-18T19:24:15.371Z,3.47
2017-11-18T19:26:42.820Z,3.70
2017-11-18T19:29:10.294Z,4.90
2017-11-18T19:31:37.759Z,4.07
2017-11-18T19:34:05.193Z,3.80
2017-11-18T19:36:33.419Z,3.60
2017-11-18T19:56:21.933Z,3.70
2017-11-18T19:58:49.379Z,4.17
2017-11-18T20:01:16.828Z,3.33
2017-11-18T20:03:44.272Z,3.33
2017-11-18T20:06:11.716Z,3.33
2017-11-18T20:08:39.925Z,3.10
2017-11-18T20:11:07.388Z,3.77
2017-11-18T20:13:34.821Z,2.90
2017-11-18T20:16:03.049Z,4.13
2017-11-18T20:18:30.494Z,3.40
2017-11-18T20:20:57.944Z,3.40
2017-11-18T20:23:25.393Z,3.77
2017-11-18T20:25:53.626Z,3.40
2017-11-18T20:28:21.061Z,4.10
2017-11-18T20:30:48.522Z,4.07
2017-11-18T20:33:15.973Z,3.53
2017-11-18T20:35:43.429Z,3.67
2017-11-18T20:38:10.873Z,2.80
2017-11-18T20:40:39.100Z,4.57
2017-11-18T20:43:06.551Z,3.60
2017-11-18T20:45:34.024Z,2.97
2017-11-18T20:48:01.479Z,4.03
2017-11-18T20:50:28.917Z,3.00
2017-11-18T20:52:56.369Z,3.20
2017-11-18T20:55:24.592Z,2.80
2017-11-18T20:57:52.048Z,3.63
2017-11-18T21:00:19.477Z,3.73
2017-11-18T21:02:47.699Z,3.43
2017-11-18T21:05:15.168Z,2.80
2017-11-18T21:07:42.621Z,2.80
2017-11-18T21:10:10.075Z,3.00
2017-11-18T21:12:37.511Z,2.80
2017-11-18T21:15:04.955Z,3.10
2017-11-18T21:17:33.170Z,3.30
2017-11-18T21:20:00.621Z,2.90
2017-11-18T21:22:28.073Z,2.60
2017-11-18T21:24:56.285Z,3.33
2017-11-18T21:27:23.761Z,3.07
2017-11-18T21:29:51.205Z,3.20
2017-11-18T21:32:18.651Z,2.60
2017-11-18T21:34:46.104Z,4.00
2017-11-18T21:37:14.312Z,4.30
2017-11-18T21:39:41.775Z,2.83
2017-11-18T21:42:09.243Z,3.57
2017-11-18T21:44:36.688Z,2.30
2017-11-18T21:47:04.147Z,2.80
2017-11-18T21:49:31.581Z,3.40
2017-11-18T21:51:59.025Z,2.90
2017-11-18T21:54:26.466Z,2.93
2017-11-18T21:56:53.917Z,2.83
2017-11-18T21:59:21.369Z,2.73
2017-11-18T22:01:48.814Z,2.33
2017-11-18T22:04:16.244Z,2.70
2017-11-18T22:06:43.685Z,2.57
2017-11-18T22:09:11.127Z,2.93
2017-11-18T22:11:38.573Z,2.67
2017-11-18T22:14:06.024Z,2.47
2017-11-18T22:16:33.473Z,2.23
2017-11-18T22:19:01.701Z,2.60
2017-11-18T22:21:29.140Z,2.80
2017-11-18T22:23:56.651Z,3.30
2017-11-18T22:26:24.102Z,2.90
2017-11-18T22:28:51.549Z,2.90
2017-11-18T22:31:18.996Z,3.40
2017-11-18T22:33:46.449Z,2.90
2017-11-18T22:36:13.891Z,2.43
2017-11-18T22:38:42.113Z,3.37
2017-11-18T22:41:09.554Z,3.00
2017-11-18T22:43:37.006Z,3.60
2017-11-18T22:46:04.479Z,3.60
2017-11-18T22:48:31.908Z,3.30
2017-11-18T22:51:00.137Z,3.60
2017-11-18T22:53:27.581Z,3.30
2017-11-18T22:55:55.037Z,3.10
2017-11-18T22:58:22.479Z,2.97
2017-11-18T23:00:50.690Z,3.20
2017-11-18T23:03:18.148Z,2.80
2017-11-18T23:05:45.618Z,2.83
2017-11-18T23:08:13.805Z,2.90
2017-11-18T23:10:41.251Z,3.03
2017-11-18T23:13:08.704Z,2.50
2017-11-18T23:15:36.149Z,3.37
2017-11-18T23:18:04.355Z,2.70
2017-11-18T23:20:31.817Z,2.73
2017-11-18T23:22:59.280Z,3.00
2017-11-18T23:25:26.732Z,3.07
2017-11-18T23:27:54.172Z,2.70
2017-11-18T23:30:22.388Z,3.27
2017-11-18T23:32:49.846Z,2.93
2017-11-18T23:35:17.286Z,2.90
2017-11-18T23:37:44.743Z,2.40
2017-11-18T23:40:12.954Z,2.80
2017-11-18T23:42:40.408Z,2.70
2017-11-18T23:45:07.854Z,3.33
2017-11-18T23:47:35.308Z,3.30
2017-11-18T23:50:03.517Z,3.60
2017-11-18T23:52:30.962Z,4.00
2017-11-18T23:54:58.417Z,4.00
2017-11-18T23:57:26.638Z,4.20
2017-11-18T23:59:54.084Z,3.67
